Time;durP1;ratioP1;P1;durP2;ratioP2;P2;SDS_P1;SDS_P2;PMS_P1;PMS_P2;Temp;Humidity;BMP_temperature;BMP_pressure;BME280_temperature;BME280_humidity;BME280_pressure;Samples;Min_cycle;Max_cycle;Signal;HPM_P1;HPM_P2
2023/05/01 00:01:31;;;;;;;16.80;10.77;;;12.90;99.90;;;;;;5067731;28;20464;-62
2023/05/01 00:03:58;;;;;;;15.32;10.23;;;12.90;99.90;;;;;;5068625;28;20202;-62
2023/05/01 00:06:26;;;;;;;21.10;10.80;;;12.90;99.90;;;;;;5069031;28;20127;-62
2023/05/01 00:08:53;;;;;;;17.15;10.82;;;12.90;99.90;;;;;;5067651;28;20400;-62
2023/05/01 00:11:20;;;;;;;16.27;10.13;;;12.90;99.90;;;;;;5067030;28;20275;-63
2023/05/01 00:13:47;;;;;;;17.13;10.68;;;12.90;99.90;;;;;;5063166;28;20075;-62
2023/05/01 00:16:15;;;;;;;13.32;10.35;;;12.80;99.90;;;;;;5057346;28;20120;-62
2023/05/01 00:18:42;;;;;;;14.50;11.40;;;12.80;99.90;;;;;;5067561;28;20052;-62
2023/05/01 00:21:09;;;;;;;16.35;11.05;;;12.90;99.90;;;;;;5068561;28;20131;-63
2023/05/01 00:23:36;;;;;;;21.38;13.07;;;12.90;99.90;;;;;;5068282;28;20439;-63
2023/05/01 00:26:03;;;;;;;20.55;11.77;;;12.90;99.90;;;;;;5067376;28;20097;-63
2023/05/01 00:28:30;;;;;;;27.27;12.70;;;12.90;99.90;;;;;;5057947;28;20128;-62
2023/05/01 00:30:57;;;;;;;16.73;12.52;;;12.90;99.90;;;;;;5061635;28;20045;-62
2023/05/01 00:33:24;;;;;;;16.52;11.00;;;12.90;99.90;;;;;;5062042;28;20055;-62
2023/05/01 00:35:51;;;;;;;18.08;11.90;;;13.00;99.90;;;;;;5057154;28;20132;-63
2023/05/01 00:38:18;;;;;;;25.83;13.32;;;13.00;99.90;;;;;;5059931;28;20127;-62
2023/05/01 00:40:46;;;;;;;22.30;12.60;;;13.00;99.90;;;;;;5061220;28;20040;-63
2023/05/01 00:43:13;;;;;;;23.55;13.95;;;12.90;99.90;;;;;;4700570;28;10000319;-63
2023/05/01 00:45:42;;;;;;;17.75;13.57;;;12.90;99.90;;;;;;5057786;28;20477;-63
2023/05/01 00:48:09;;;;;;;20.73;13.85;;;12.90;99.90;;;;;;5061032;28;20044;-63
2023/05/01 00:50:37;;;;;;;19.50;13.80;;;12.80;99.90;;;;;;5059153;28;20418;-63
2023/05/01 00:53:04;;;;;;;17.10;12.50;;;12.80;99.90;;;;;;5059146;28;20044;-63
2023/05/01 00:55:31;;;;;;;18.33;12.73;;;12.80;99.90;;;;;;5067170;28;20044;-63
2023/05/01 00:57:58;;;;;;;21.55;13.52;;;12.80;99.90;;;;;;5058280;28;20559;-63
2023/05/01 01:00:24;;;;;;;18.33;12.90;;;12.70;99.90;;;;;;5060580;28;20044;-63
2023/05/01 01:02:51;;;;;;;19.80;13.27;;;12.70;99.90;;;;;;5061516;28;20399;-63
2023/05/01 01:05:18;;;;;;;19.38;13.75;;;12.70;99.90;;;;;;5050802;28;20045;-63
2023/05/01 01:07:54;;;;;;;19.58;13.23;;;12.70;99.90;;;;;;5046143;28;20044;-63
2023/05/01 01:10:46;;;;;;;19.60;13.13;;;12.70;99.90;;;;;;5051594;28;20067;-63
2023/05/01 01:14:00;;;;;;;23.20;13.77;;;12.70;99.90;;;;;;5058002;28;20048;-63
2023/05/01 01:16:36;;;;;;;17.13;12.10;;;12.70;99.90;;;;;;5053561;28;20216;-63
2023/05/01 01:19:33;;;;;;;25.10;14.27;;;12.70;99.90;;;;;;5054363;28;20075;-63
2023/05/01 01:22:04;;;;;;;22.08;12.70;;;12.70;99.90;;;;;;5060740;28;20050;-63
2023/05/01 01:25:28;;;;;;;18.60;12.50;;;12.70;99.90;;;;;;5070467;28;20048;-63
2023/05/01 01:28:17;;;;;;;20.25;14.18;;;12.80;99.90;;;;;;5044003;28;20045;-63
2023/05/01 01:30:51;;;;;;;24.15;13.15;;;12.80;99.90;;;;;;5015733;28;20152;-63
2023/05/01 01:33:40;;;;;;;21.15;12.77;;;12.70;99.90;;;;;;5055917;28;20080;-63
2023/05/01 01:36:10;;;;;;;19.77;12.25;;;12.70;99.90;;;;;;5070109;28;20547;-63
2023/05/01 01:38:45;;;;;;;20.23;14.05;;;12.70;99.90;;;;;;5070517;28;20055;-63
2023/05/01 01:41:13;;;;;;;21.25;13.40;;;12.70;99.90;;;;;;5070536;28;20620;-63
2023/05/01 01:43:43;;;;;;;21.60;14.82;;;12.70;99.90;;;;;;5053587;28;20084;-63
2023/05/01 01:46:10;;;;;;;17.77;13.25;;;12.70;99.90;;;;;;5065984;28;20044;-64
2023/05/01 01:48:41;;;;;;;19.40;13.70;;;12.70;99.90;;;;;;5055807;28;20115;-63
2023/05/01 01:51:12;;;;;;;20.85;14.05;;;12.60;99.90;;;;;;5066245;28;20083;-63
2023/05/01 01:53:39;;;;;;;19.23;13.50;;;12.60;99.90;;;;;;5073379;28;20113;-63
2023/05/01 01:56:06;;;;;;;21.25;13.88;;;12.60;99.90;;;;;;5073556;28;20084;-63
2023/05/01 01:58:35;;;;;;;22.33;14.27;;;12.60;99.90;;;;;;5047288;28;20045;-63
2023/05/01 02:01:02;;;;;;;22.25;14.27;;;12.70;99.90;;;;;;5052297;28;20406;-63
2023/05/01 02:03:28;;;;;;;16.38;12.95;;;12.60;99.90;;;;;;5069137;28;20049;-63
2023/05/01 02:05:55;;;;;;;19.58;12.55;;;12.60;99.90;;;;;;5069185;28;20090;-63
2023/05/01 02:08:22;;;;;;;24.52;13.40;;;12.70;99.90;;;;;;5069312;28;20040;-64
2023/05/01 02:10:49;;;;;;;21.05;13.18;;;12.70;99.90;;;;;;5070317;28;20084;-63
2023/05/01 02:13:16;;;;;;;18.80;14.57;;;12.60;99.90;;;;;;5066486;28;20083;-63
2023/05/01 02:15:44;;;;;;;22.88;13.65;;;12.60;99.90;;;;;;5069742;28;20084;-63
2023/05/01 02:18:10;;;;;;;22.38;13.43;;;12.50;99.90;;;;;;5068903;28;20049;-63
2023/05/01 02:20:37;;;;;;;20.70;13.68;;;12.50;99.90;;;;;;5069489;28;20135;-63
2023/05/01 02:23:04;;;;;;;19.98;13.98;;;12.40;99.90;;;;;;5069612;28;20055;-63
2023/05/01 02:25:31;;;;;;;22.15;14.32;;;12.40;99.90;;;;;;5069216;28;20047;-63
2023/05/01 02:28:08;;;;;;;20.00;14.10;;;12.30;99.90;;;;;;5069122;28;20455;-63
2023/05/01 02:30:35;;;;;;;20.98;13.23;;;12.30;99.90;;;;;;5058681;28;20079;-63
2023/05/01 02:33:02;;;;;;;19.83;13.80;;;12.30;99.90;;;;;;5067797;28;20498;-63
2023/05/01 02:35:29;;;;;;;19.95;13.40;;;12.20;99.90;;;;;;5069651;28;20486;-63
2023/05/01 02:37:56;;;;;;;21.67;15.07;;;12.20;99.90;;;;;;5070243;28;20062;-63
2023/05/01 02:40:22;;;;;;;22.75;13.88;;;12.10;99.90;;;;;;5069067;28;20041;-63
2023/05/01 02:42:49;;;;;;;24.17;15.95;;;12.10;99.90;;;;;;5052368;28;20044;-63
2023/05/01 02:45:21;;;;;;;21.05;14.25;;;12.00;99.90;;;;;;5056503;28;20431;-67
2023/05/01 02:47:55;;;;;;;26.33;14.93;;;12.00;99.90;;;;;;5049096;28;20048;-63
2023/05/01 02:50:22;;;;;;;24.83;14.57;;;12.00;99.90;;;;;;5070014;28;20571;-63
2023/05/01 02:52:49;;;;;;;19.85;13.68;;;12.00;99.90;;;;;;5068469;28;20044;-63
2023/05/01 02:55:17;;;;;;;20.60;14.77;;;11.90;99.90;;;;;;5068355;28;20321;-63
2023/05/01 02:57:43;;;;;;;21.35;14.15;;;12.00;99.90;;;;;;5068067;28;20452;-63
2023/05/01 03:00:12;;;;;;;26.15;14.18;;;12.00;99.90;;;;;;5066243;28;20044;-63
2023/05/01 03:02:39;;;;;;;21.98;14.77;;;11.90;99.90;;;;;;5069175;28;20134;-62
2023/05/01 03:05:07;;;;;;;22.20;13.95;;;12.00;99.90;;;;;;5068566;28;20461;-63
2023/05/01 03:07:34;;;;;;;24.70;13.98;;;11.90;99.90;;;;;;5064684;28;20051;-63
2023/05/01 03:10:06;;;;;;;23.77;14.80;;;11.90;99.90;;;;;;5069682;28;20243;-63
2023/05/01 03:12:33;;;;;;;22.98;15.52;;;11.90;99.90;;;;;;5067944;28;20118;-63
2023/05/01 03:15:00;;;;;;;24.25;14.65;;;12.00;99.90;;;;;;5069158;28;20392;-63
2023/05/01 03:17:26;;;;;;;27.35;15.93;;;12.00;99.90;;;;;;5069270;28;20082;-63
2023/05/01 03:19:53;;;;;;;23.00;14.57;;;11.90;99.90;;;;;;5069106;28;20056;-63
2023/05/01 03:22:20;;;;;;;24.23;14.57;;;12.00;99.90;;;;;;5069283;28;20286;-63
2023/05/01 03:24:48;;;;;;;21.88;12.90;;;11.90;99.90;;;;;;5068922;28;20576;-63
2023/05/01 03:27:15;;;;;;;21.30;15.52;;;11.90;99.90;;;;;;5068891;28;20517;-63
2023/05/01 03:29:42;;;;;;;20.88;14.05;;;12.00;99.90;;;;;;5068607;28;20127;-63
2023/05/01 03:32:08;;;;;;;19.45;14.40;;;12.00;99.90;;;;;;5053846;28;20049;-64
2023/05/01 03:34:35;;;;;;;20.35;13.40;;;12.00;99.90;;;;;;5063721;28;20094;-63
2023/05/01 03:37:02;;;;;;;18.60;12.77;;;12.00;99.90;;;;;;5068525;28;20174;-63
2023/05/01 03:39:29;;;;;;;20.33;13.27;;;12.00;99.90;;;;;;5067412;28;20444;-63
2023/05/01 03:41:57;;;;;;;26.10;14.57;;;12.00;99.90;;;;;;5068797;28;20055;-63
2023/05/01 03:44:24;;;;;;;24.55;14.15;;;12.00;99.90;;;;;;5066813;28;20045;-63
2023/05/01 03:46:51;;;;;;;22.38;14.00;;;12.00;99.90;;;;;;5069024;28;20049;-63
2023/05/01 03:49:17;;;;;;;25.88;15.50;;;11.90;99.90;;;;;;5069654;28;20036;-63
2023/05/01 03:51:44;;;;;;;21.42;14.57;;;11.90;99.90;;;;;;5069807;28;20406;-63
2023/05/01 03:54:11;;;;;;;26.90;15.80;;;11.80;99.90;;;;;;5068789;28;20135;-63
2023/05/01 03:56:38;;;;;;;23.42;15.32;;;11.90;99.90;;;;;;5069363;28;20566;-63
2023/05/01 03:59:05;;;;;;;25.38;14.82;;;11.80;99.90;;;;;;5069839;28;20171;-63
2023/05/01 04:01:34;;;;;;;30.35;16.15;;;11.80;99.90;;;;;;5061078;28;20053;-63
2023/05/01 04:04:01;;;;;;;25.80;15.88;;;11.80;99.90;;;;;;5050372;28;20106;-63
2023/05/01 04:06:28;;;;;;;23.48;14.73;;;11.80;99.90;;;;;;5066223;28;20139;-63
2023/05/01 04:08:55;;;;;;;25.63;15.77;;;11.80;99.90;;;;;;5069305;28;20230;-63
2023/05/01 04:11:22;;;;;;;27.33;16.38;;;11.80;99.90;;;;;;5068795;28;20040;-63
2023/05/01 04:13:48;;;;;;;28.73;16.35;;;11.90;99.90;;;;;;5069868;28;20131;-62
2023/05/01 04:16:15;;;;;;;31.63;16.83;;;11.90;99.90;;;;;;5069173;28;20040;-63
2023/05/01 04:18:42;;;;;;;27.45;16.88;;;11.80;99.90;;;;;;5068515;28;20053;-63
2023/05/01 04:21:10;;;;;;;27.20;16.73;;;11.90;99.90;;;;;;5069086;28;20127;-64
2023/05/01 04:23:36;;;;;;;30.27;14.93;;;11.90;99.90;;;;;;5069312;28;20425;-63
2023/05/01 04:26:03;;;;;;;28.75;15.63;;;11.80;99.90;;;;;;5068974;28;20090;-63
2023/05/01 04:28:30;;;;;;;24.33;15.45;;;11.80;99.90;;;;;;5068604;28;20056;-63
2023/05/01 04:30:58;;;;;;;25.17;15.05;;;11.90;99.90;;;;;;5065064;28;20057;-64
2023/05/01 04:33:26;;;;;;;28.55;14.85;;;11.80;99.90;;;;;;5060270;28;20120;-63
2023/05/01 04:35:53;;;;;;;24.52;12.63;;;11.90;99.90;;;;;;5052727;28;20036;-62
2023/05/01 04:38:20;;;;;;;19.27;11.73;;;11.90;99.90;;;;;;5058079;28;20120;-62
2023/05/01 04:40:47;;;;;;;14.93;9.57;;;11.90;99.90;;;;;;5057904;28;20140;-62
2023/05/01 04:43:13;;;;;;;19.20;9.70;;;11.80;99.90;;;;;;5064380;28;20046;-63
2023/05/01 04:45:40;;;;;;;17.63;9.35;;;11.60;99.90;;;;;;5068671;28;20488;-63
2023/05/01 04:48:07;;;;;;;18.15;10.63;;;11.50;99.90;;;;;;5068756;28;20062;-62
2023/05/01 04:50:34;;;;;;;18.20;8.68;;;11.50;99.90;;;;;;5064814;28;20047;-62
2023/05/01 04:53:00;;;;;;;14.13;8.88;;;11.50;99.90;;;;;;5068275;28;20123;-62
2023/05/01 04:55:27;;;;;;;17.55;8.93;;;11.60;99.90;;;;;;5068563;28;20494;-63
2023/05/01 04:57:56;;;;;;;14.55;9.10;;;11.70;99.90;;;;;;5073033;28;20049;-63
2023/05/01 05:00:23;;;;;;;15.23;9.70;;;11.70;99.90;;;;;;5070063;28;20059;-63
2023/05/01 05:02:50;;;;;;;16.67;8.98;;;11.70;99.90;;;;;;5070997;28;20487;-63
2023/05/01 05:05:17;;;;;;;14.82;8.43;;;11.80;99.90;;;;;;5073455;28;20170;-63
2023/05/01 05:07:43;;;;;;;13.52;7.53;;;11.70;99.90;;;;;;5058860;28;20044;-62
2023/05/01 05:10:10;;;;;;;17.50;7.53;;;11.80;99.90;;;;;;5076048;28;20041;-63
2023/05/01 05:12:37;;;;;;;16.98;7.05;;;11.80;99.90;;;;;;5076289;28;20171;-63
2023/05/01 05:15:04;;;;;;;21.35;6.70;;;11.80;99.90;;;;;;5074352;28;20563;-64
2023/05/01 05:17:31;;;;;;;19.83;6.80;;;11.80;99.90;;;;;;5074902;28;20048;-63
2023/05/01 05:19:57;;;;;;;15.43;6.93;;;11.80;99.90;;;;;;5073720;28;20269;-63
2023/05/01 05:22:24;;;;;;;14.63;6.03;;;11.90;99.90;;;;;;5073764;28;20123;-63
2023/05/01 05:24:58;;;;;;;19.40;7.18;;;11.80;99.90;;;;;;5074112;28;20470;-63
2023/05/01 05:27:25;;;;;;;;;;;11.80;99.90;;;;;;5076001;28;20049;-63
2023/05/01 05:29:52;;;;;;;13.82;6.90;;;11.80;99.90;;;;;;5078429;28;19920;-62
2023/05/01 05:32:19;;;;;;;24.98;6.85;;;11.80;99.90;;;;;;5073126;28;20072;-62
2023/05/01 05:34:46;;;;;;;16.67;6.63;;;11.90;99.90;;;;;;5077201;28;20054;-63
2023/05/01 05:37:14;;;;;;;11.38;5.50;;;11.80;99.90;;;;;;5072798;28;20059;-62
2023/05/01 05:39:41;;;;;;;13.93;6.28;;;11.80;99.90;;;;;;5071035;28;20048;-62
2023/05/01 05:42:07;;;;;;;12.50;6.82;;;11.90;99.90;;;;;;5054249;28;20084;-62
2023/05/01 05:44:35;;;;;;;13.00;5.90;;;11.90;99.90;;;;;;5063455;28;20053;-63
2023/05/01 05:47:02;;;;;;;10.48;5.68;;;11.90;99.90;;;;;;5071608;28;20079;-63
2023/05/01 05:49:29;;;;;;;16.23;5.00;;;11.90;99.90;;;;;;5067077;28;20206;-63
2023/05/01 05:51:56;;;;;;;11.05;4.88;;;11.90;99.90;;;;;;5067437;28;20049;-63
2023/05/01 05:54:22;;;;;;;12.80;4.95;;;11.90;99.90;;;;;;5067628;28;20479;-62
2023/05/01 05:56:49;;;;;;;14.02;4.80;;;12.00;99.90;;;;;;5065581;28;20411;-63
2023/05/01 05:59:17;;;;;;;10.25;4.13;;;12.10;99.90;;;;;;5065106;28;20072;-63
2023/05/01 06:01:44;;;;;;;11.95;3.78;;;12.00;99.90;;;;;;5067362;28;20045;-62
2023/05/01 06:04:12;;;;;;;9.57;3.67;;;11.90;99.90;;;;;;5071262;28;20411;-62
2023/05/01 06:06:40;;;;;;;13.30;4.05;;;11.90;99.90;;;;;;5053297;28;20050;-63
2023/05/01 06:09:11;;;;;;;6.28;3.33;;;11.90;99.90;;;;;;5070529;28;20120;-62
2023/05/01 06:11:38;;;;;;;12.77;3.92;;;11.80;99.90;;;;;;5059137;28;20052;-63
2023/05/01 06:14:06;;;;;;;9.63;3.80;;;11.80;99.90;;;;;;5053013;28;20224;-63
2023/05/01 06:16:33;;;;;;;10.27;3.35;;;11.70;99.90;;;;;;5070123;28;20536;-63
2023/05/01 06:19:00;;;;;;;14.35;3.72;;;11.80;99.90;;;;;;5066019;28;20056;-62
2023/05/01 06:21:26;;;;;;;12.63;3.38;;;11.80;99.90;;;;;;5067867;28;20068;-63
2023/05/01 06:23:53;;;;;;;17.15;4.00;;;11.80;99.90;;;;;;5065406;28;20044;-63
2023/05/01 06:26:20;;;;;;;10.43;3.60;;;11.90;99.90;;;;;;5070614;28;20114;-62
2023/05/01 06:28:50;;;;;;;11.90;4.35;;;12.00;99.90;;;;;;5070337;28;20127;-63
2023/05/01 06:31:16;;;;;;;7.97;3.95;;;11.90;99.90;;;;;;5070666;28;20044;-64
2023/05/01 06:33:43;;;;;;;12.35;4.38;;;11.90;99.90;;;;;;5064957;28;20102;-64
2023/05/01 06:36:10;;;;;;;19.17;4.53;;;11.90;99.90;;;;;;5053432;28;20408;-62
2023/05/01 06:38:37;;;;;;;9.35;5.00;;;12.00;99.90;;;;;;5066079;28;20500;-63
2023/05/01 06:41:04;;;;;;;10.23;4.35;;;12.10;99.90;;;;;;5054485;28;20045;-63
2023/05/01 06:43:31;;;;;;;16.23;6.07;;;12.10;99.90;;;;;;5064534;28;20057;-64
2023/05/01 06:45:58;;;;;;;14.85;4.70;;;12.10;99.90;;;;;;5053505;28;20033;-63
2023/05/01 06:48:25;;;;;;;14.60;4.40;;;12.00;99.90;;;;;;4709269;28;10001126;-63
2023/05/01 06:50:51;;;;;;;12.68;4.60;;;11.90;99.90;;;;;;5066062;28;20124;-63
2023/05/01 06:53:18;;;;;;;10.48;4.20;;;11.90;99.90;;;;;;5065612;28;20048;-63
2023/05/01 06:55:45;;;;;;;12.23;5.57;;;12.00;99.90;;;;;;5064613;28;20325;-63
2023/05/01 06:58:12;;;;;;;11.15;4.35;;;11.90;99.90;;;;;;5065769;28;20255;-63
2023/05/01 07:00:50;;;;;;;14.35;4.50;;;12.00;99.90;;;;;;5066280;28;20161;-62
2023/05/01 07:03:18;;;;;;;13.43;3.85;;;12.10;99.90;;;;;;5066332;28;20051;-62
2023/05/01 07:05:44;;;;;;;8.32;3.80;;;12.10;99.90;;;;;;5060678;28;20547;-62
2023/05/01 07:08:11;;;;;;;9.05;3.83;;;12.20;99.90;;;;;;5055628;28;20048;-62
2023/05/01 07:10:38;;;;;;;14.07;4.40;;;12.20;99.90;;;;;;5054984;28;20627;-62
2023/05/01 07:13:08;;;;;;;13.23;5.05;;;12.20;99.90;;;;;;5064952;28;20454;-63
2023/05/01 07:15:35;;;;;;;17.55;4.72;;;12.40;99.90;;;;;;5065548;28;20052;-64
2023/05/01 07:18:04;;;;;;;14.63;4.72;;;12.50;99.90;;;;;;5064748;28;20147;-63
2023/05/01 07:20:31;;;;;;;13.90;4.78;;;12.50;99.90;;;;;;5062284;28;20086;-64
2023/05/01 07:22:58;;;;;;;10.13;4.80;;;12.60;99.90;;;;;;5069224;28;20134;-63
2023/05/01 07:25:25;;;;;;;10.60;3.65;;;12.60;99.90;;;;;;5051979;28;20135;-64
2023/05/01 07:27:53;;;;;;;14.32;4.68;;;12.60;99.90;;;;;;5064461;28;20492;-63
2023/05/01 07:30:20;;;;;;;18.92;4.70;;;12.70;99.90;;;;;;5051602;28;20044;-63
2023/05/01 07:32:46;;;;;;;17.80;4.72;;;12.80;99.90;;;;;;5060925;28;20075;-63
2023/05/01 07:35:13;;;;;;;12.82;4.00;;;12.70;99.90;;;;;;5052949;28;20243;-63
2023/05/01 07:37:40;;;;;;;9.90;4.50;;;12.60;99.90;;;;;;5061178;28;20464;-63
2023/05/01 07:40:07;;;;;;;15.90;4.57;;;12.60;99.90;;;;;;5064925;28;20048;-64
2023/05/01 07:42:34;;;;;;;12.80;4.80;;;12.60;99.90;;;;;;5054076;28;20499;-63
2023/05/01 07:45:01;;;;;;;13.05;4.65;;;12.60;99.90;;;;;;5068879;28;20159;-64
2023/05/01 07:47:28;;;;;;;13.20;4.47;;;12.70;99.90;;;;;;5068152;28;20641;-64
2023/05/01 07:49:54;;;;;;;14.55;4.30;;;12.80;99.90;;;;;;5061500;28;20079;-63
2023/05/01 07:52:21;;;;;;;12.50;4.35;;;12.80;99.90;;;;;;5057870;28;20051;-63
2023/05/01 07:54:49;;;;;;;14.48;4.60;;;12.80;99.90;;;;;;5066734;28;20059;-63
2023/05/01 07:57:17;;;;;;;13.13;4.57;;;12.70;99.90;;;;;;5051752;28;20083;-63
2023/05/01 07:59:43;;;;;;;14.77;4.07;;;12.80;99.90;;;;;;5066290;28;20074;-63
2023/05/01 08:02:12;;;;;;;22.70;4.57;;;12.80;99.90;;;;;;5064354;28;20131;-63
2023/05/01 08:04:40;;;;;;;13.95;4.03;;;12.80;99.90;;;;;;5061056;28;20415;-63
2023/05/01 08:07:07;;;;;;;9.57;3.85;;;12.80;99.90;;;;;;5061776;28;20045;-63
2023/05/01 08:09:34;;;;;;;20.40;5.55;;;12.80;99.90;;;;;;5058606;28;20079;-64
2023/05/01 08:12:02;;;;;;;12.23;4.28;;;12.60;99.90;;;;;;5059374;28;20045;-63
2023/05/01 08:14:29;;;;;;;8.88;3.95;;;12.70;99.90;;;;;;5061724;28;20183;-63
2023/05/01 08:16:56;;;;;;;13.27;4.60;;;12.70;99.90;;;;;;5063586;28;20050;-63
2023/05/01 08:19:26;;;;;;;14.32;4.00;;;12.80;99.90;;;;;;5054876;28;20518;-63
2023/05/01 08:21:53;;;;;;;11.43;3.92;;;12.90;99.90;;;;;;5059960;28;20079;-63
2023/05/01 08:24:20;;;;;;;11.52;4.32;;;13.00;99.90;;;;;;5064629;28;20048;-63
2023/05/01 08:26:47;;;;;;;16.00;3.85;;;13.00;99.90;;;;;;5068302;28;20091;-63
2023/05/01 08:29:14;;;;;;;10.57;3.47;;;12.90;99.90;;;;;;5067196;28;20056;-63
2023/05/01 08:31:42;;;;;;;14.27;4.47;;;12.90;99.90;;;;;;5065532;28;20051;-62
2023/05/01 08:34:09;;;;;;;13.63;4.38;;;12.90;99.90;;;;;;5063270;28;20052;-63
2023/05/01 08:36:37;;;;;;;13.02;4.47;;;13.00;99.90;;;;;;5066580;28;20048;-63
2023/05/01 08:39:04;;;;;;;9.27;3.83;;;13.20;99.90;;;;;;5063233;28;20051;-63
2023/05/01 08:41:31;;;;;;;8.45;3.40;;;13.20;99.90;;;;;;5063499;28;20140;-62
2023/05/01 08:43:57;;;;;;;15.43;4.18;;;13.20;99.90;;;;;;5055375;28;20080;-64
2023/05/01 08:46:28;;;;;;;16.40;5.30;;;13.30;99.90;;;;;;5056279;28;20071;-64
2023/05/01 08:48:55;;;;;;;14.15;4.45;;;13.20;99.90;;;;;;5063710;28;20056;-63
2023/05/01 08:51:22;;;;;;;9.07;3.22;;;13.20;99.90;;;;;;5046207;28;20513;-63
2023/05/01 08:53:50;;;;;;;9.27;4.00;;;13.30;99.90;;;;;;5059978;28;20052;-64
2023/05/01 08:56:18;;;;;;;24.27;4.80;;;13.30;99.90;;;;;;5052909;28;20052;-64
2023/05/01 08:58:45;;;;;;;19.13;5.40;;;13.50;99.90;;;;;;5062155;28;20045;-63
2023/05/01 09:01:15;;;;;;;27.10;4.20;;;13.70;99.90;;;;;;5047152;28;20049;-63
2023/05/01 09:03:43;;;;;;;7.78;3.45;;;13.80;99.90;;;;;;5058047;28;20193;-63
2023/05/01 09:06:10;;;;;;;12.20;3.45;;;13.90;99.90;;;;;;5069689;28;20052;-63
2023/05/01 09:08:37;;;;;;;11.57;3.88;;;13.90;99.90;;;;;;5058560;28;20103;-63
2023/05/01 09:11:05;;;;;;;11.73;3.78;;;14.10;99.90;;;;;;5063949;28;20052;-63
2023/05/01 09:13:32;;;;;;;11.48;3.50;;;14.20;99.90;;;;;;5061893;28;20059;-62
2023/05/01 09:15:59;;;;;;;10.77;3.47;;;14.30;99.90;;;;;;5063718;28;20116;-62
2023/05/01 09:18:26;;;;;;;11.07;3.80;;;14.50;99.90;;;;;;5058853;28;20404;-63
2023/05/01 09:20:54;;;;;;;13.98;3.60;;;14.50;99.90;;;;;;5063385;28;20064;-63
2023/05/01 09:23:20;;;;;;;14.98;4.47;;;14.50;99.90;;;;;;5049580;28;20135;-64
2023/05/01 09:25:47;;;;;;;13.48;4.10;;;14.40;99.90;;;;;;5056162;28;20094;-65
2023/05/01 09:28:17;;;;;;;11.93;3.50;;;14.40;99.90;;;;;;5067446;28;20071;-64
2023/05/01 09:30:45;;;;;;;19.88;5.63;;;14.60;99.90;;;;;;5034807;28;20469;-64
2023/05/01 09:33:13;;;;;;;13.75;3.92;;;14.70;99.90;;;;;;5072563;28;20167;-64
2023/05/01 09:35:53;;;;;;;15.57;4.90;;;14.80;99.90;;;;;;5071728;28;20499;-64
2023/05/01 09:38:21;;;;;;;10.30;3.10;;;14.90;99.90;;;;;;5072016;28;20096;-65
2023/05/01 09:40:48;;;;;;;13.25;3.80;;;14.90;99.90;;;;;;5069882;28;20114;-64
2023/05/01 09:43:28;;;;;;;14.93;4.78;;;15.00;99.90;;;;;;5048179;28;20067;-64
2023/05/01 09:46:09;;;;;;;10.40;3.45;;;15.00;99.90;;;;;;5068598;28;20054;-64
2023/05/01 09:48:36;;;;;;;5.70;2.80;;;14.90;99.90;;;;;;5069109;28;20107;-64
2023/05/01 09:51:24;;;;;;;7.55;2.70;;;15.00;99.90;;;;;;5070855;28;20050;-65
2023/05/01 09:53:51;;;;;;;11.35;3.35;;;15.00;99.90;;;;;;5070068;28;20044;-63
2023/05/01 09:56:20;;;;;;;12.73;4.03;;;14.90;99.90;;;;;;5068150;28;20040;-64
2023/05/01 09:58:48;;;;;;;9.38;3.38;;;14.90;99.90;;;;;;5067817;28;20052;-63
2023/05/01 10:01:15;;;;;;;11.55;3.65;;;14.90;99.90;;;;;;5065024;28;20040;-64
2023/05/01 10:03:43;;;;;;;16.50;4.28;;;14.60;99.90;;;;;;5068404;28;20040;-63
2023/05/01 10:06:10;;;;;;;7.50;3.38;;;14.60;99.90;;;;;;5071408;28;20075;-63
2023/05/01 10:08:47;;;;;;;18.13;3.28;;;14.50;99.90;;;;;;5070129;28;20103;-63
2023/05/01 10:11:14;;;;;;;8.90;3.40;;;14.40;99.90;;;;;;5072175;28;20541;-63
2023/05/01 10:13:41;;;;;;;15.30;3.80;;;14.50;99.90;;;;;;5055533;28;20134;-64
2023/05/01 10:16:27;;;;;;;16.08;3.67;;;14.50;99.90;;;;;;5068362;28;20063;-64
2023/05/01 10:18:57;;;;;;;9.50;3.90;;;14.70;99.90;;;;;;5069741;28;20637;-64
2023/05/01 10:21:24;;;;;;;12.48;3.65;;;15.10;99.90;;;;;;5066640;28;20052;-64
2023/05/01 10:23:51;;;;;;;13.23;3.90;;;15.30;99.90;;;;;;5058979;28;20072;-64
2023/05/01 10:26:19;;;;;;;10.25;3.63;;;15.30;99.90;;;;;;5067659;28;20051;-65
2023/05/01 10:28:47;;;;;;;10.57;3.70;;;15.40;99.90;;;;;;5054697;28;20128;-64
2023/05/01 10:31:15;;;;;;;16.60;3.83;;;15.30;99.90;;;;;;5056156;28;20079;-64
2023/05/01 10:33:45;;;;;;;8.05;3.20;;;15.20;99.90;;;;;;5064438;28;20049;-63
2023/05/01 10:36:18;;;;;;;8.55;3.13;;;15.10;99.90;;;;;;5067221;28;20052;-63
2023/05/01 10:38:47;;;;;;;7.45;2.70;;;15.10;99.90;;;;;;5052185;28;20055;-64
2023/05/01 10:41:15;;;;;;;9.10;3.60;;;15.20;99.90;;;;;;5069910;28;20132;-64
2023/05/01 10:43:42;;;;;;;7.45;3.33;;;15.50;99.90;;;;;;5041294;28;20533;-63
2023/05/01 10:46:09;;;;;;;9.27;3.17;;;15.60;99.90;;;;;;5058464;28;20106;-64
2023/05/01 10:48:39;;;;;;;12.57;4.05;;;15.70;99.90;;;;;;5062438;28;20099;-65
2023/05/01 10:51:08;;;;;;;10.13;3.03;;;15.50;99.90;;;;;;5071673;28;20048;-65
2023/05/01 10:53:35;;;;;;;7.47;3.03;;;15.60;99.90;;;;;;5067918;28;20127;-65
2023/05/01 10:56:04;;;;;;;8.38;2.60;;;15.70;99.90;;;;;;5070312;28;20098;-65
2023/05/01 10:58:37;;;;;;;14.60;3.80;;;15.80;99.90;;;;;;5070720;28;20052;-63
2023/05/01 11:01:27;;;;;;;7.25;2.90;;;16.00;99.90;;;;;;5071631;28;20040;-64
2023/05/01 11:03:55;;;;;;;8.65;3.10;;;15.80;99.90;;;;;;5072400;28;20068;-65
2023/05/01 11:06:22;;;;;;;6.45;2.88;;;15.90;99.90;;;;;;5054500;28;20047;-64
2023/05/01 11:08:49;;;;;;;11.65;2.63;;;16.00;99.90;;;;;;5069933;28;20048;-64
2023/05/01 11:11:22;;;;;;;8.98;2.92;;;16.20;99.90;;;;;;5071313;28;20044;-63
2023/05/01 11:14:09;;;;;;;13.60;3.40;;;16.10;99.90;;;;;;5072125;28;20051;-64
2023/05/01 11:16:39;;;;;;;8.68;2.83;;;15.90;99.90;;;;;;5070686;28;20502;-64
2023/05/01 11:19:10;;;;;;;9.95;3.05;;;16.00;99.90;;;;;;5072313;28;20052;-64
2023/05/01 11:21:40;;;;;;;6.80;2.40;;;16.30;99.90;;;;;;5072080;28;20059;-62
2023/05/01 11:24:08;;;;;;;8.40;3.35;;;16.50;99.90;;;;;;5071372;28;20180;-64
2023/05/01 11:26:38;;;;;;;25.80;4.18;;;16.60;99.90;;;;;;5071346;28;20139;-64
2023/05/01 11:29:07;;;;;;;8.88;2.83;;;16.80;99.90;;;;;;5072333;28;20055;-65
2023/05/01 11:31:35;;;;;;;8.38;2.28;;;16.80;99.90;;;;;;4702983;28;10000977;-63
2023/05/01 11:34:02;;;;;;;11.43;2.92;;;16.80;99.90;;;;;;5053893;28;20052;-64
2023/05/01 11:36:30;;;;;;;5.55;2.15;;;17.00;99.90;;;;;;5071113;28;20066;-64
2023/05/01 11:38:58;;;;;;;6.13;1.80;;;17.00;99.90;;;;;;5066484;28;20552;-64
2023/05/01 11:41:26;;;;;;;4.85;1.88;;;17.00;99.90;;;;;;5055297;28;20103;-64
2023/05/01 11:43:55;;;;;;;5.93;2.22;;;17.00;99.90;;;;;;5066653;28;20099;-64
2023/05/01 11:46:26;;;;;;;6.30;2.17;;;17.00;99.90;;;;;;5028214;28;20053;-64
2023/05/01 11:48:55;;;;;;;5.13;2.35;;;17.00;99.90;;;;;;5068346;28;20045;-64
2023/05/01 11:51:22;;;;;;;5.68;1.75;;;17.10;99.90;;;;;;5070623;28;20056;-64
2023/05/01 11:54:02;;;;;;;3.92;1.75;;;17.00;99.90;;;;;;5070788;28;20590;-65
2023/05/01 11:56:29;;;;;;;5.85;2.78;;;17.30;99.90;;;;;;5047127;28;20403;-65
2023/05/01 11:58:57;;;;;;;4.30;2.00;;;17.40;99.90;;;;;;5070061;28;20044;-64
2023/05/01 12:01:34;;;;;;;8.77;2.35;;;17.30;99.90;;;;;;5071092;28;20041;-63
2023/05/01 12:04:02;;;;;;;4.47;1.42;;;17.20;99.90;;;;;;5058404;28;20495;-64
2023/05/01 12:06:42;;;;;;;4.85;2.33;;;17.30;99.90;;;;;;5067399;28;20053;-65
2023/05/01 12:09:21;;;;;;;5.35;1.85;;;17.50;99.90;;;;;;5069906;28;20087;-64
2023/05/01 12:11:51;;;;;;;4.35;1.27;;;17.60;99.90;;;;;;5056067;28;20079;-64
2023/05/01 12:14:20;;;;;;;2.85;1.60;;;17.60;99.90;;;;;;5064641;28;20048;-63
2023/05/01 12:16:47;;;;;;;3.53;1.63;;;17.60;99.90;;;;;;5057777;28;20055;-63
2023/05/01 12:19:14;;;;;;;6.13;1.50;;;17.70;99.90;;;;;;5055735;28;20057;-64
2023/05/01 12:21:41;;;;;;;2.85;1.70;;;17.50;99.90;;;;;;5065170;28;20068;-64
2023/05/01 12:24:15;;;;;;;6.90;1.95;;;17.60;99.90;;;;;;5060868;28;20064;-64
2023/05/01 12:26:43;;;;;;;6.80;1.92;;;17.50;99.90;;;;;;5063447;28;20411;-63
2023/05/01 12:29:10;;;;;;;4.20;1.58;;;17.50;99.90;;;;;;5062288;28;20074;-64
2023/05/01 12:31:45;;;;;;;2.65;1.60;;;17.60;99.90;;;;;;5067977;28;20093;-64
2023/05/01 12:34:12;;;;;;;5.05;1.77;;;17.70;99.90;;;;;;5046797;28;20097;-64
2023/05/01 12:36:39;;;;;;;3.22;1.60;;;17.70;99.90;;;;;;5063733;28;20376;-62
2023/05/01 12:39:09;;;;;;;6.85;1.80;;;17.80;99.90;;;;;;5060425;28;20044;-63
2023/05/01 12:41:40;;;;;;;5.68;1.90;;;17.90;99.90;;;;;;5060710;28;20095;-64
2023/05/01 12:44:24;;;;;;;4.10;1.85;;;17.80;99.90;;;;;;5071011;28;20088;-64